Time;durP1;ratioP1;P1;durP2;ratioP2;P2;SDS_P1;SDS_P2;PMS_P1;PMS_P2;Temp;Humidity;BMP_temperature;BMP_pressure;BME280_temperature;BME280_humidity;BME280_pressure;Samples;Min_cycle;Max_cycle;Signal;HPM_P1;HPM_P2
2023/03/01 00:02:12;;;;;;;;;;;;;;;3.89;84.67;101470.84;5576673;31;32945;-66
2023/03/01 00:05:19;;;;;;;;;;;;;;;3.94;84.35;101469.62;5588834;31;32903;-66
2023/03/01 00:08:27;;;;;;;;;;;;;;;3.88;85.15;101466.53;5588584;31;34661;-66
2023/03/01 00:11:38;;;;;;;;;;;;;;;3.88;83.86;101464.75;5588491;31;33039;-65
2023/03/01 00:14:47;;;;;;;;;;;;;;;3.92;84.23;101458.38;5588792;31;34766;-65
2023/03/01 00:17:59;;;;;;;;;;;;;;;3.85;84.37;101464.13;5589498;31;34508;-65
2023/03/01 00:21:07;;;;;;;;;;;;;;;3.80;84.69;101461.78;5576484;31;34321;-65
2023/03/01 00:24:17;;;;;;;;;;;;;;;3.83;84.10;101466.84;5588714;31;34195;-65
2023/03/01 00:27:23;;;;;;;;;;;;;;;3.82;83.83;101465.19;5589473;31;34586;-66
2023/03/01 00:30:34;;;;;;;;;;;;;;;3.88;84.35;101471.78;5589395;31;34488;-65
2023/03/01 00:33:41;;;;;;;;;;;;;;;3.81;83.84;101460.00;5588690;31;34855;-65
2023/03/01 00:36:50;;;;;;;;;;;;;;;3.86;83.69;101473.69;5575929;31;34260;-65
2023/03/01 00:39:58;;;;;;;;;;;;;;;3.82;84.33;101472.22;5575429;31;33114;-65
2023/03/01 00:43:10;;;;;;;;;;;;;;;3.90;83.07;101475.16;5576729;31;34274;-65
2023/03/01 00:46:21;;;;;;;;;;;;;;;3.93;82.89;101474.97;5587775;31;34236;-65
2023/03/01 00:49:30;;;;;;;;;;;;;;;3.92;83.45;101470.69;5588484;31;34360;-65
2023/03/01 00:52:44;;;;;;;;;;;;;;;3.90;82.58;101481.28;5563857;31;33100;-65
2023/03/01 00:55:52;;;;;;;;;;;;;;;3.93;83.38;101480.22;5588675;31;34579;-66
2023/03/01 00:59:04;;;;;;;;;;;;;;;4.03;80.23;101478.69;5588320;31;34129;-66
2023/03/01 01:02:14;;;;;;;;;;;;;;;3.88;81.68;101474.41;5587644;31;34252;-65
2023/03/01 01:05:26;;;;;;;;;;;;;;;3.88;80.99;101472.62;5587985;31;34185;-65
2023/03/01 01:08:35;;;;;;;;;;;;;;;3.87;82.35;101476.19;5587862;31;34363;-66
2023/03/01 01:11:47;;;;;;;;;;;;;;;3.98;82.76;101472.03;5588826;31;34415;-65
2023/03/01 01:14:57;;;;;;;;;;;;;;;3.83;82.87;101472.09;5587993;31;34637;-66
2023/03/01 01:18:09;;;;;;;;;;;;;;;3.77;82.63;101463.78;5588859;31;34238;-65
2023/03/01 01:21:18;;;;;;;;;;;;;;;3.82;82.45;101459.09;5575030;31;33175;-65
2023/03/01 01:24:25;;;;;;;;;;;;;;;3.84;81.38;101462.44;5588619;31;34318;-65
2023/03/01 01:27:37;;;;;;;;;;;;;;;3.79;82.30;101448.75;5575860;31;34270;-66
2023/03/01 01:30:47;;;;;;;;;;;;;;;3.77;83.40;101448.88;5588552;31;34320;-65
2023/03/01 01:33:54;;;;;;;;;;;;;;;3.77;83.24;101441.00;5587636;31;34369;-65
2023/03/01 01:37:03;;;;;;;;;;;;;;;3.77;83.71;101433.13;5588470;31;34912;-65
2023/03/01 01:40:11;;;;;;;;;;;;;;;3.73;84.90;101421.13;5587573;31;34334;-65
2023/03/01 01:43:24;;;;;;;;;;;;;;;3.80;84.91;101413.69;5575156;31;34479;-66
2023/03/01 01:46:37;;;;;;;;;;;;;;;3.76;85.06;101425.34;5587565;31;34287;-65
2023/03/01 01:49:53;;;;;;;;;;;;;;;3.77;85.82;101419.16;5587425;31;34305;-66
2023/03/01 01:53:01;;;;;;;;;;;;;;;3.84;85.29;101418.66;5587059;31;34040;-65
2023/03/01 01:56:11;;;;;;;;;;;;;;;3.98;83.97;101420.37;5574530;31;34546;-65
2023/03/01 01:59:18;;;;;;;;;;;;;;;3.83;85.09;101406.47;5589975;31;33912;-65
2023/03/01 02:02:26;;;;;;;;;;;;;;;3.89;84.40;101407.84;5590000;31;34165;-65
2023/03/01 02:05:57;;;;;;;;;;;;;;;3.76;85.49;101407.81;5589487;31;33676;-65
2023/03/01 02:09:11;;;;;;;;;;;;;;;3.75;86.21;101410.53;5590330;31;34367;-65
2023/03/01 02:12:20;;;;;;;;;;;;;;;3.85;86.09;101404.59;5589284;31;35257;-66
2023/03/01 02:15:31;;;;;;;;;;;;;;;3.83;86.63;101406.47;5590619;31;34931;-65
2023/03/01 02:18:42;;;;;;;;;;;;;;;3.79;86.18;101406.75;5589905;31;34286;-66
2023/03/01 02:22:16;;;;;;;;;;;;;;;3.73;87.99;101409.78;5590461;31;34650;-65
2023/03/01 02:25:45;;;;;;;;;;;;;;;3.72;88.04;101401.09;5589485;31;34760;-65
2023/03/01 02:28:54;;;;;;;;;;;;;;;3.76;87.98;101391.22;5589809;31;34154;-65
2023/03/01 02:32:06;;;;;;;;;;;;;;;3.78;87.77;101397.19;5589676;31;33701;-66
2023/03/01 02:35:14;;;;;;;;;;;;;;;3.63;88.60;101392.97;5590309;31;34168;-65
2023/03/01 02:38:23;;;;;;;;;;;;;;;3.63;89.27;101396.41;5589456;31;35408;-65
2023/03/01 02:41:34;;;;;;;;;;;;;;;3.73;88.58;101384.38;5589709;31;33826;-65
2023/03/01 02:44:44;;;;;;;;;;;;;;;3.76;88.42;101381.56;5590308;31;34423;-65
2023/03/01 02:47:49;;;;;;;;;;;;;;;3.70;89.58;101379.34;5589481;31;34219;-65
2023/03/01 02:51:15;;;;;;;;;;;;;;;3.69;89.87;101376.81;5590228;31;34174;-65
2023/03/01 02:54:26;;;;;;;;;;;;;;;3.61;90.86;101385.19;5588912;31;32730;-65
2023/03/01 02:57:38;;;;;;;;;;;;;;;3.79;90.52;101364.78;5590073;31;35078;-65
2023/03/01 03:00:49;;;;;;;;;;;;;;;3.72;92.10;101368.75;5576944;31;32857;-65
2023/03/01 03:03:57;;;;;;;;;;;;;;;3.68;91.89;101369.91;5577037;31;32675;-65
2023/03/01 03:07:04;;;;;;;;;;;;;;;3.47;94.66;101370.34;5590101;31;34291;-65
2023/03/01 03:10:22;;;;;;;;;;;;;;;3.55;95.74;101369.00;5589429;31;33745;-65
2023/03/01 03:13:34;;;;;;;;;;;;;;;3.47;95.53;101366.88;5576380;31;34678;-65
2023/03/01 03:16:42;;;;;;;;;;;;;;;3.47;95.84;101374.75;5590065;31;34882;-65
2023/03/01 03:19:54;;;;;;;;;;;;;;;3.50;95.81;101371.91;5590106;31;34209;-65
2023/03/01 03:23:06;;;;;;;;;;;;;;;3.59;95.30;101368.69;5589086;31;34033;-65
2023/03/01 03:26:14;;;;;;;;;;;;;;;3.60;95.27;101357.25;5589210;31;34675;-65
2023/03/01 03:29:22;;;;;;;;;;;;;;;3.61;95.26;101364.19;5576623;31;33083;-66
2023/03/01 03:32:31;;;;;;;;;;;;;;;3.62;95.61;101354.53;5589250;31;34249;-65
2023/03/01 03:35:42;;;;;;;;;;;;;;;3.75;94.16;101356.25;5589132;31;33791;-66
2023/03/01 03:38:54;;;;;;;;;;;;;;;3.74;94.32;101358.97;5589846;31;34307;-66
2023/03/01 03:42:00;;;;;;;;;;;;;;;3.66;95.48;101356.88;5589817;31;34412;-65
2023/03/01 03:45:09;;;;;;;;;;;;;;;3.64;95.80;101357.91;5589198;31;34586;-65
2023/03/01 03:48:17;;;;;;;;;;;;;;;3.61;97.27;101360.72;5576419;31;33375;-65
2023/03/01 03:51:22;;;;;;;;;;;;;;;3.64;97.11;101353.50;5589058;31;33065;-66
2023/03/01 03:54:37;;;;;;;;;;;;;;;3.71;95.37;101357.41;5576628;31;32949;-65
2023/03/01 03:57:51;;;;;;;;;;;;;;;3.64;95.35;101366.63;5589056;31;34383;-66
2023/03/01 04:01:03;;;;;;;;;;;;;;;3.68;94.69;101356.78;5588512;31;35236;-66
2023/03/01 04:04:18;;;;;;;;;;;;;;;3.59;93.86;101373.09;5589148;31;32964;-66
2023/03/01 04:07:26;;;;;;;;;;;;;;;3.50;94.46;101366.66;5520673;31;2173380;-67
2023/03/01 04:10:44;;;;;;;;;;;;;;;3.50;94.89;101364.03;5588853;31;34810;-66
2023/03/01 04:13:52;;;;;;;;;;;;;;;3.59;94.88;101365.22;5575820;31;34020;-66
2023/03/01 04:17:01;;;;;;;;;;;;;;;3.52;94.27;101366.56;5576532;31;34861;-67
2023/03/01 04:20:12;;;;;;;;;;;;;;;3.55;94.91;101366.38;5587886;31;34867;-66
2023/03/01 04:23:20;;;;;;;;;;;;;;;3.55;93.71;101361.97;5588621;31;35347;-67
2023/03/01 04:26:28;;;;;;;;;;;;;;;3.50;93.78;101371.91;5589651;31;33772;-66
2023/03/01 04:29:41;;;;;;;;;;;;;;;3.51;93.19;101373.59;5576821;31;33671;-66
2023/03/01 04:32:50;;;;;;;;;;;;;;;3.50;94.25;101364.88;5589284;31;35023;-66
2023/03/01 04:35:58;;;;;;;;;;;;;;;3.53;93.33;101363.88;5576185;31;34027;-67
2023/03/01 04:39:11;;;;;;;;;;;;;;;3.50;93.06;101370.13;5589367;31;34886;-66
2023/03/01 04:42:19;;;;;;;;;;;;;;;3.57;93.42;101361.88;5589286;31;34462;-66
2023/03/01 04:45:27;;;;;;;;;;;;;;;3.47;93.22;101369.50;5589270;31;34845;-66
2023/03/01 04:48:40;;;;;;;;;;;;;;;3.56;92.28;101368.06;5589399;31;33843;-66
2023/03/01 04:51:48;;;;;;;;;;;;;;;3.46;93.26;101362.56;5588666;31;34862;-66
2023/03/01 04:54:58;;;;;;;;;;;;;;;3.53;93.67;101365.63;5588431;31;33254;-66
2023/03/01 04:58:07;;;;;;;;;;;;;;;3.47;94.03;101351.97;5589153;31;34375;-68
2023/03/01 05:01:17;;;;;;;;;;;;;;;3.42;94.18;101358.44;5589008;31;34278;-68
2023/03/01 05:04:24;;;;;;;;;;;;;;;3.38;94.30;101354.34;5588168;31;34627;-68
2023/03/01 05:07:34;;;;;;;;;;;;;;;3.40;94.92;101355.06;5588230;31;34316;-68
2023/03/01 05:10:46;;;;;;;;;;;;;;;3.37;95.27;101358.75;5589045;31;34163;-69
2023/03/01 05:13:55;;;;;;;;;;;;;;;3.39;95.98;101350.75;5588264;31;34295;-68
2023/03/01 05:17:04;;;;;;;;;;;;;;;3.39;95.54;101346.34;5587857;31;33080;-68
2023/03/01 05:20:15;;;;;;;;;;;;;;;3.41;95.55;101344.50;5588057;31;34824;-68
2023/03/01 05:23:23;;;;;;;;;;;;;;;3.40;96.62;101350.66;5588037;31;34257;-68
2023/03/01 05:26:29;;;;;;;;;;;;;;;3.42;95.78;101350.59;5575295;31;34761;-68
2023/03/01 05:29:41;;;;;;;;;;;;;;;3.49;95.30;101343.97;5588551;31;34406;-68
2023/03/01 05:32:55;;;;;;;;;;;;;;;3.57;94.45;101346.13;5590050;31;34097;-68
2023/03/01 05:36:05;;;;;;;;;;;;;;;3.48;95.21;101343.16;5591099;31;34645;-68
2023/03/01 05:39:14;;;;;;;;;;;;;;;3.49;95.97;101351.84;5590371;31;32964;-70
2023/03/01 05:42:22;;;;;;;;;;;;;;;3.46;96.54;101355.53;5591417;31;34310;-68
2023/03/01 05:45:30;;;;;;;;;;;;;;;3.52;95.95;101353.47;5590266;31;34455;-68
2023/03/01 05:48:38;;;;;;;;;;;;;;;3.54;96.21;101359.44;5590976;31;34245;-67
2023/03/01 05:51:48;;;;;;;;;;;;;;;3.55;96.39;101366.38;5590773;31;34600;-67
2023/03/01 05:54:54;;;;;;;;;;;;;;;3.58;97.21;101374.91;5590826;31;33174;-68
2023/03/01 05:58:03;;;;;;;;;;;;;;;3.65;97.38;101372.69;5590708;31;34922;-67
2023/03/01 06:01:12;;;;;;;;;;;;;;;3.86;94.86;101373.94;5577218;31;32632;-67
2023/03/01 06:04:18;;;;;;;;;;;;;;;3.95;93.73;101370.72;5577379;31;34311;-67
2023/03/01 06:07:24;;;;;;;;;;;;;;;3.86;94.88;101372.16;5589589;31;32816;-67
2023/03/01 06:10:29;;;;;;;;;;;;;;;3.84;95.74;101378.44;5589800;31;34452;-68
2023/03/01 06:13:33;;;;;;;;;;;;;;;3.88;94.79;101372.03;5590311;31;34286;-68
2023/03/01 06:16:40;;;;;;;;;;;;;;;3.99;94.42;101372.19;5590408;31;34318;-68
2023/03/01 06:19:48;;;;;;;;;;;;;;;4.04;92.84;101379.75;5577017;31;34033;-68
2023/03/01 06:22:57;;;;;;;;;;;;;;;3.94;94.19;101377.75;5590419;31;34261;-68
2023/03/01 06:26:07;;;;;;;;;;;;;;;3.99;94.77;101377.44;5590318;31;34277;-68
2023/03/01 06:29:14;;;;;;;;;;;;;;;4.13;92.93;101373.88;5589535;31;34811;-68
2023/03/01 06:32:20;;;;;;;;;;;;;;;4.15;92.91;101377.25;5590504;31;34325;-68
2023/03/01 06:35:29;;;;;;;;;;;;;;;4.27;91.49;101379.91;5589561;31;34297;-69
2023/03/01 06:38:34;;;;;;;;;;;;;;;3.98;93.46;101377.53;5589371;31;34588;-68
2023/03/01 06:41:39;;;;;;;;;;;;;;;4.05;92.80;101378.81;5589386;31;33856;-68
2023/03/01 06:44:45;;;;;;;;;;;;;;;4.05;92.30;101384.06;5588632;31;34364;-68
2023/03/01 06:47:49;;;;;;;;;;;;;;;4.12;92.28;101398.47;5590023;31;34901;-69
2023/03/01 06:50:57;;;;;;;;;;;;;;;4.12;90.78;101394.06;5589181;31;34949;-67
2023/03/01 06:54:04;;;;;;;;;;;;;;;4.26;89.64;101399.22;5589877;31;34291;-67
2023/03/01 06:57:12;;;;;;;;;;;;;;;4.24;90.81;101400.28;5589032;31;34233;-67
2023/03/01 07:00:22;;;;;;;;;;;;;;;4.23;89.65;101398.59;5576367;31;33125;-68
2023/03/01 07:03:28;;;;;;;;;;;;;;;4.34;89.19;101398.72;5589791;31;34389;-68
2023/03/01 07:06:32;;;;;;;;;;;;;;;4.58;88.51;101393.59;5588534;31;34335;-68
2023/03/01 07:09:38;;;;;;;;;;;;;;;4.38;89.41;101394.94;5589190;31;34699;-67
2023/03/01 07:12:43;;;;;;;;;;;;;;;4.62;87.79;101401.16;5589753;31;35428;-67
2023/03/01 07:15:49;;;;;;;;;;;;;;;4.59;87.98;101395.28;5588996;31;34396;-67
2023/03/01 07:18:58;;;;;;;;;;;;;;;4.72;86.24;101391.72;5576275;31;32877;-67
2023/03/01 07:22:04;;;;;;;;;;;;;;;4.68;86.70;101392.03;5575831;31;34828;-67
2023/03/01 07:25:09;;;;;;;;;;;;;;;4.72;86.36;101381.19;5589226;31;34136;-69
2023/03/01 07:28:13;;;;;;;;;;;;;;;4.89;85.12;101393.16;5588873;31;34661;-67
2023/03/01 07:31:17;;;;;;;;;;;;;;;4.78;84.96;101385.19;5588670;31;34939;-67
2023/03/01 07:34:21;;;;;;;;;;;;;;;5.12;83.10;101375.78;5588400;31;34518;-68
2023/03/01 07:37:25;;;;;;;;;;;;;;;5.41;80.22;101382.44;5589051;31;34360;-68
2023/03/01 07:40:29;;;;;;;;;;;;;;;5.33;80.15;101382.13;5588891;31;34461;-68
2023/03/01 07:43:33;;;;;;;;;;;;;;;4.79;83.26;101387.69;5588856;31;33480;-68
2023/03/01 07:46:36;;;;;;;;;;;;;;;5.09;81.30;101387.34;5589561;31;34238;-68
2023/03/01 07:49:42;;;;;;;;;;;;;;;5.39;79.92;101386.13;5589604;31;34298;-67
2023/03/01 07:52:47;;;;;;;;;;;;;;;5.54;78.45;101380.59;5575574;31;32951;-67
2023/03/01 07:56:10;;;;;;;;;;;;;;;5.66;76.80;101374.44;5589515;31;34675;-67
2023/03/01 07:59:15;;;;;;;;;;;;;;;5.54;76.60;101374.50;5589530;31;34246;-68
2023/03/01 08:02:22;;;;;;;;;;;;;;;5.95;74.95;101374.12;5589702;31;35510;-67
2023/03/01 08:05:27;;;;;;;;;;;;;;;6.07;73.25;101370.56;5588847;31;34162;-68
2023/03/01 08:08:31;;;;;;;;;;;;;;;6.22;72.71;101366.78;5575718;31;35246;-67
2023/03/01 08:11:35;;;;;;;;;;;;;;;6.15;73.34;101370.00;5588721;31;34603;-67
2023/03/01 08:14:42;;;;;;;;;;;;;;;6.22;73.50;101371.22;5576292;31;32993;-67
2023/03/01 08:17:49;;;;;;;;;;;;;;;6.51;73.99;101370.69;5588963;31;34237;-67
2023/03/01 08:20:54;;;;;;;;;;;;;;;6.81;71.84;101369.28;5589409;31;34118;-67
2023/03/01 08:24:02;;;;;;;;;;;;;;;7.03;69.85;101363.97;5588658;31;33066;-66
2023/03/01 08:27:06;;;;;;;;;;;;;;;6.87;68.06;101361.72;5588609;31;34168;-66
2023/03/01 08:30:11;;;;;;;;;;;;;;;6.94;68.31;101359.44;5589178;31;34317;-67
2023/03/01 08:33:18;;;;;;;;;;;;;;;7.17;66.65;101354.97;5588520;31;34381;-67
2023/03/01 08:36:29;;;;;;;;;;;;;;;7.07;65.97;101351.41;5575743;31;32960;-67
2023/03/01 08:39:34;;;;;;;;;;;;;;;7.27;65.19;101348.84;5588002;31;35127;-67
2023/03/01 08:42:43;;;;;;;;;;;;;;;6.91;66.47;101344.69;5588864;31;34494;-67
2023/03/01 08:45:50;;;;;;;;;;;;;;;6.92;66.72;101346.34;5589041;31;33951;-67
2023/03/01 08:48:56;;;;;;;;;;;;;;;7.34;65.26;101343.91;5588212;31;34724;-67
2023/03/01 08:52:02;;;;;;;;;;;;;;;6.93;66.38;101341.91;5588131;31;34439;-66
2023/03/01 08:55:07;;;;;;;;;;;;;;;6.98;66.32;101334.50;5589222;31;34373;-66
2023/03/01 08:58:11;;;;;;;;;;;;;;;8.08;62.73;101336.94;5588134;31;35031;-67
2023/03/01 09:01:18;;;;;;;;;;;;;;;7.91;62.41;101335.69;5588839;31;34539;-67
2023/03/01 09:04:25;;;;;;;;;;;;;;;8.13;61.53;101338.19;5575353;31;34353;-67
2023/03/01 09:07:30;;;;;;;;;;;;;;;8.85;58.95;101329.44;5587978;31;34691;-68
2023/03/01 09:10:37;;;;;;;;;;;;;;;7.97;62.21;101331.69;5588673;31;34621;-67
2023/03/01 09:13:44;;;;;;;;;;;;;;;7.64;62.70;101341.44;5588688;31;34870;-67
2023/03/01 09:16:47;;;;;;;;;;;;;;;8.55;60.83;101328.47;5588856;31;33853;-67
2023/03/01 09:19:51;;;;;;;;;;;;;;;8.66;58.35;101315.19;5588842;31;34795;-67
2023/03/01 09:22:54;;;;;;;;;;;;;;;7.85;61.13;101315.03;5588711;31;34252;-67
2023/03/01 09:25:58;;;;;;;;;;;;;;;8.18;61.65;101314.03;5588299;31;34880;-68
2023/03/01 09:29:01;;;;;;;;;;;;;;;8.58;60.06;101311.50;5588838;31;34256;-67
2023/03/01 09:32:08;;;;;;;;;;;;;;;8.79;60.06;101306.16;5588666;31;34822;-68
2023/03/01 09:35:14;;;;;;;;;;;;;;;9.12;57.92;101296.09;5575382;31;35524;-68
2023/03/01 09:38:23;;;;;;;;;;;;;;;8.85;58.81;101295.03;5587644;31;32996;-69
2023/03/01 09:41:43;;;;;;;;;;;;;;;8.32;61.18;101297.03;5587617;31;34372;-68
2023/03/01 09:44:54;;;;;;;;;;;;;;;8.86;58.84;101289.59;5587461;31;33477;-67
2023/03/01 09:47:58;;;;;;;;;;;;;;;9.61;57.18;101278.44;5587265;31;34131;-67
2023/03/01 09:51:07;;;;;;;;;;;;;;;8.33;61.06;101281.03;5587397;31;34122;-68
2023/03/01 09:54:11;;;;;;;;;;;;;;;8.10;62.53;101279.47;5588430;31;34855;-67
2023/03/01 09:57:19;;;;;;;;;;;;;;;8.44;60.93;101274.81;5588258;31;33626;-67
2023/03/01 10:00:28;;;;;;;;;;;;;;;8.81;59.63;101267.19;5587401;31;32871;-66
2023/03/01 10:03:45;;;;;;;;;;;;;;;8.55;60.90;101266.81;5574388;31;33131;-66
2023/03/01 10:07:02;;;;;;;;;;;;;;;9.14;59.22;101264.19;5587036;31;34836;-67
2023/03/01 10:10:08;;;;;;;;;;;;;;;9.11;57.95;101267.94;5586866;31;34286;-66
2023/03/01 10:13:24;;;;;;;;;;;;;;;8.69;58.81;101266.44;5587739;31;34437;-66
2023/03/01 10:16:47;;;;;;;;;;;;;;;9.14;57.74;101264.19;5586695;31;34445;-66
2023/03/01 10:19:51;;;;;;;;;;;;;;;9.16;58.21;101267.53;5589238;31;34409;-66
2023/03/01 10:22:55;;;;;;;;;;;;;;;8.75;60.38;101255.34;5589484;31;34789;-66
2023/03/01 10:26:14;;;;;;;;;;;;;;;8.62;59.93;101246.78;5590205;31;34977;-66
2023/03/01 10:29:23;;;;;;;;;;;;;;;8.39;60.86;101238.19;5576435;31;33444;-66
2023/03/01 10:32:28;;;;;;;;;;;;;;;8.21;61.28;101235.31;5589374;31;34564;-66
2023/03/01 10:35:35;;;;;;;;;;;;;;;8.04;62.33;101229.78;5577015;31;34379;-66
2023/03/01 10:38:54;;;;;;;;;;;;;;;8.31;62.41;101219.53;5590100;31;34965;-66
2023/03/01 10:42:01;;;;;;;;;;;;;;;8.65;60.30;101222.72;5588859;31;34117;-67
2023/03/01 10:45:29;;;;;;;;;;;;;;;8.48;61.30;101212.75;5590460;31;34307;-68
2023/03/01 10:48:34;;;;;;;;;;;;;;;8.32;62.30;101204.50;5589938;31;34685;-67
2023/03/01 10:51:40;;;;;;;;;;;;;;;8.43;62.06;101197.31;5589018;31;33946;-67
2023/03/01 10:54:52;;;;;;;;;;;;;;;8.56;60.92;101195.28;5590497;31;34966;-66
2023/03/01 10:58:06;;;;;;;;;;;;;;;8.46;60.95;101183.00;5589750;31;34868;-66
2023/03/01 11:01:17;;;;;;;;;;;;;;;8.68;59.38;101180.94;5576837;31;35096;-66
2023/03/01 11:04:21;;;;;;;;;;;;;;;8.91;59.15;101186.84;5589201;31;33305;-68
2023/03/01 11:07:26;;;;;;;;;;;;;;;9.12;59.25;101174.31;5589210;31;34683;-67
2023/03/01 11:10:35;;;;;;;;;;;;;;;9.35;58.57;101174.88;5576402;31;32814;-69
2023/03/01 11:13:51;;;;;;;;;;;;;;;9.53;57.68;101172.34;5589125;31;35828;-67
2023/03/01 11:17:03;;;;;;;;;;;;;;;9.64;57.15;101177.47;5590011;31;34164;-66
2023/03/01 11:20:12;;;;;;;;;;;;;;;9.90;56.58;101169.75;5589073;31;34886;-66
2023/03/01 11:23:22;;;;;;;;;;;;;;;10.27;54.78;101154.69;5576854;31;33188;-67
2023/03/01 11:26:29;;;;;;;;;;;;;;;11.80;51.20;101157.19;5589185;31;33215;-67
2023/03/01 11:29:40;;;;;;;;;;;;;;;12.53;48.65;101147.72;5575746;31;32804;-67
2023/03/01 11:32:53;;;;;;;;;;;;;;;13.32;47.41;101149.00;5589062;31;34210;-67
2023/03/01 11:36:00;;;;;;;;;;;;;;;14.50;43.76;101159.78;5588699;31;33358;-67
2023/03/01 11:39:15;;;;;;;;;;;;;;;13.64;45.67;101153.50;5589774;31;34277;-66
2023/03/01 11:42:25;;;;;;;;;;;;;;;14.60;42.95;101157.72;5588240;31;34763;-68
2023/03/01 11:45:39;;;;;;;;;;;;;;;15.48;41.23;101157.28;5576383;31;32799;-66
2023/03/01 11:48:50;;;;;;;;;;;;;;;15.04;41.89;101144.59;5589561;31;34284;-68
2023/03/01 11:52:01;;;;;;;;;;;;;;;15.88;40.37;101140.00;5589506;31;34483;-67
2023/03/01 11:55:31;;;;;;;;;;;;;;;15.13;41.35;101148.87;5589474;31;34142;-67
2023/03/01 11:58:44;;;;;;;;;;;;;;;15.13;41.50;101143.53;5588750;31;34533;-67
2023/03/01 12:02:10;;;;;;;;;;;;;;;14.72;42.74;101134.09;5588780;31;34998;-67
2023/03/01 12:05:22;;;;;;;;;;;;;;;14.66;42.40;101134.84;5589593;31;34183;-68
2023/03/01 12:08:52;;;;;;;;;;;;;;;14.44;42.93;101131.09;5588729;31;33881;-68
2023/03/01 12:12:02;;;;;;;;;;;;;;;14.06;44.01;101123.91;5560331;31;34300;-67
2023/03/01 12:15:18;;;;;;;;;;;;;;;12.97;46.37;101120.84;5589427;31;34322;-68
2023/03/01 12:18:37;;;;;;;;;;;;;;;12.87;47.15;101117.50;5589178;31;33767;-66
2023/03/01 12:21:49;;;;;;;;;;;;;;;13.24;46.03;101104.56;5589240;31;34325;-66
2023/03/01 12:25:03;;;;;;;;;;;;;;;13.19;46.15;101101.56;5588905;31;34435;-66
2023/03/01 12:28:17;;;;;;;;;;;;;;;12.53;47.91;101101.63;5588503;31;34827;-66
2023/03/01 12:31:27;;;;;;;;;;;;;;;12.94;47.11;101090.03;5575579;31;33504;-66
2023/03/01 12:34:58;;;;;;;;;;;;;;;13.06;46.85;101096.72;5588527;31;34302;-66
2023/03/01 12:38:08;;;;;;;;;;;;;;;13.40;45.83;101090.41;5547482;31;34274;-66
2023/03/01 12:41:26;;;;;;;;;;;;;;;13.21;46.68;101077.44;5587443;31;34230;-67
2023/03/01 12:44:49;;;;;;;;;;;;;;;14.56;43.30;101078.16;5588161;31;34286;-68
2023/03/01 12:48:16;;;;;;;;;;;;;;;14.89;43.00;101079.59;5588841;31;34447;-66
2023/03/01 12:51:26;;;;;;;;;;;;;;;15.92;40.88;101075.25;5588392;31;34868;-67
2023/03/01 12:54:31;;;;;;;;;;;;;;;15.22;42.17;101067.59;5588542;31;33934;-67
2023/03/01 12:57:46;;;;;;;;;;;;;;;15.01;42.75;101069.28;5588871;31;34508;-68
2023/03/01 13:00:58;;;;;;;;;;;;;;;15.11;42.60;101075.22;5588174;31;34360;-67
2023/03/01 13:04:17;;;;;;;;;;;;;;;14.97;42.85;101068.81;5587998;31;34230;-68
2023/03/01 13:07:30;;;;;;;;;;;;;;;16.62;40.31;101063.97;5588589;31;34452;-67
2023/03/01 13:10:35;;;;;;;;;;;;;;;19.01;35.66;101064.09;5574944;31;33425;-67
2023/03/01 13:13:38;;;;;;;;;;;;;;;18.62;35.44;101062.19;5588619;31;34366;-67
2023/03/01 13:16:44;;;;;;;;;;;;;;;17.17;37.54;101065.94;5574965;31;35582;-67
2023/03/01 13:19:58;;;;;;;;;;;;;;;16.52;39.54;101060.72;5588919;31;34791;-67
2023/03/01 13:23:13;;;;;;;;;;;;;;;16.40;40.08;101054.22;5588559;31;34839;-66
2023/03/01 13:26:18;;;;;;;;;;;;;;;15.77;40.00;101058.38;5587720;31;34258;-67
2023/03/01 13:29:26;;;;;;;;;;;;;;;16.01;40.28;101059.94;5574463;31;34725;-69
2023/03/01 13:32:31;;;;;;;;;;;;;;;16.78;38.54;101041.44;5575121;31;34153;-66
2023/03/01 13:35:47;;;;;;;;;;;;;;;18.62;35.59;101040.69;5588386;31;34838;-66
2023/03/01 13:38:55;;;;;;;;;;;;;;;17.91;36.83;101035.88;5587294;31;34251;-67
2023/03/01 13:41:59;;;;;;;;;;;;;;;18.44;35.28;101032.34;5587383;31;34959;-67
2023/03/01 13:45:15;;;;;;;;;;;;;;;17.84;37.03;101027.78;5574493;31;32761;-67
2023/03/01 13:48:25;;;;;;;;;;;;;;;14.96;41.81;101024.41;5588129;31;34764;-67
2023/03/01 13:51:29;;;;;;;;;;;;;;;15.49;41.33;101019.91;5574276;31;33077;-66
2023/03/01 13:54:35;;;;;;;;;;;;;;;15.90;39.93;101010.37;5589353;31;34910;-68
2023/03/01 13:57:40;;;;;;;;;;;;;;;17.33;38.62;101006.63;5576982;31;32771;-67
2023/03/01 14:00:59;;;;;;;;;;;;;;;17.34;37.52;101000.22;5577839;31;34017;-67
2023/03/01 14:04:18;;;;;;;;;;;;;;;17.56;36.93;101002.84;5590133;31;34922;-67
2023/03/01 14:07:24;;;;;;;;;;;;;;;20.77;32.42;101000.94;5589663;31;34350;-67
2023/03/01 14:10:42;;;;;;;;;;;;;;;18.07;36.00;101000.63;5589854;31;34180;-68
2023/03/01 14:14:05;;;;;;;;;;;;;;;20.71;32.17;100997.28;5589537;31;34921;-67
2023/03/01 14:17:10;;;;;;;;;;;;;;;17.89;36.28;100990.44;5590395;31;34956;-68
2023/03/01 14:20:18;;;;;;;;;;;;;;;16.39;39.57;100982.94;5590098;31;33900;-68
2023/03/01 14:23:26;;;;;;;;;;;;;;;13.62;44.81;100976.88;5590201;31;34784;-68
2023/03/01 14:26:33;;;;;;;;;;;;;;;12.90;46.58;100968.87;5590135;31;34232;-67
2023/03/01 14:29:53;;;;;;;;;;;;;;;11.85;50.30;100963.47;5589246;31;33854;-67
2023/03/01 14:33:03;;;;;;;;;;;;;;;11.52;51.80;100972.28;5589386;31;34371;-67
2023/03/01 14:36:10;;;;;;;;;;;;;;;11.31;52.67;100964.72;5590113;31;34244;-67
2023/03/01 14:39:18;;;;;;;;;;;;;;;11.23;52.84;100964.69;5589987;31;34415;-67
2023/03/01 14:42:24;;;;;;;;;;;;;;;11.15;53.08;100959.28;5576441;31;34256;-67
2023/03/01 14:45:30;;;;;;;;;;;;;;;11.12;52.93;100957.81;5589243;31;34775;-67
2023/03/01 14:48:35;;;;;;;;;;;;;;;11.17;53.21;100947.53;5576014;31;35048;-67
2023/03/01 14:51:40;;;;;;;;;;;;;;;11.33;54.16;100941.44;5589843;31;34570;-68
2023/03/01 14:54:47;;;;;;;;;;;;;;;11.17;53.66;100939.56;5589191;31;34901;-68
2023/03/01 14:57:51;;;;;;;;;;;;;;;11.20;53.75;100927.78;5589830;31;34159;-68
2023/03/01 15:00:58;;;;;;;;;;;;;;;11.04;54.60;100936.50;5588902;31;34343;-68
2023/03/01 15:04:02;;;;;;;;;;;;;;;10.93;54.86;100926.16;5588129;31;34772;-68
2023/03/01 15:07:06;;;;;;;;;;;;;;;10.77;55.75;100932.19;5588536;31;33807;-68
2023/03/01 15:10:21;;;;;;;;;;;;;;;10.62;56.40;100938.19;5588559;31;34251;-68
2023/03/01 15:13:30;;;;;;;;;;;;;;;10.62;56.61;100928.44;5576144;31;34007;-67
2023/03/01 15:16:41;;;;;;;;;;;;;;;10.53;56.65;100931.16;5589569;31;34252;-68
2023/03/01 15:19:47;;;;;;;;;;;;;;;10.50;57.03;100931.50;5589350;31;33954;-68
2023/03/01 15:22:53;;;;;;;;;;;;;;;10.41;56.57;100931.41;5588567;31;34293;-68
2023/03/01 15:25:58;;;;;;;;;;;;;;;10.40;57.55;100934.22;5574898;31;35870;-67
2023/03/01 15:29:03;;;;;;;;;;;;;;;10.35;57.70;100936.50;5588120;31;34324;-67
2023/03/01 15:32:21;;;;;;;;;;;;;;;10.31;58.04;100932.50;5588352;31;33499;-67
2023/03/01 15:35:56;;;;;;;;;;;;;;;10.28;57.78;100935.44;5575275;31;32631;-67
2023/03/01 15:39:03;;;;;;;;;;;;;;;10.19;58.46;100923.94;5522393;31;34791;-67
2023/03/01 15:42:13;;;;;;;;;;;;;;;10.11;58.50;100928.28;5588502;31;34598;-67
2023/03/01 15:45:25;;;;;;;;;;;;;;;10.11;58.57;100929.13;5589212;31;34822;-68
2023/03/01 15:48:30;;;;;;;;;;;;;;;10.04;58.73;100936.00;5588444;31;34324;-67
2023/03/01 15:51:37;;;;;;;;;;;;;;;9.92;58.75;100945.19;5589151;31;35020;-68
2023/03/01 15:54:40;;;;;;;;;;;;;;;9.83;59.43;100938.09;5588148;31;34418;-67
2023/03/01 15:57:49;;;;;;;;;;;;;;;9.73;59.68;100940.81;5589352;31;34865;-67
2023/03/01 16:00:56;;;;;;;;;;;;;;;9.68;59.95;100936.97;5588232;31;34908;-67
2023/03/01 16:04:20;;;;;;;;;;;;;;;9.66;60.14;100930.97;5588441;31;34351;-67
2023/03/01 16:07:27;;;;;;;;;;;;;;;9.44;61.15;100933.03;5588743;31;33488;-67
2023/03/01 16:10:38;;;;;;;;;;;;;;;9.29;61.65;100938.97;5575269;31;33600;-67
2023/03/01 16:13:46;;;;;;;;;;;;;;;9.18;62.25;100932.03;5575291;31;33025;-68
2023/03/01 16:16:53;;;;;;;;;;;;;;;9.12;62.24;100938.75;5586598;31;34313;-67
2023/03/01 16:20:01;;;;;;;;;;;;;;;8.94;63.11;100937.81;5587400;31;33542;-68
2023/03/01 16:23:16;;;;;;;;;;;;;;;8.84;63.86;100942.31;5589084;31;34786;-67